createdAt,value
2023-01-25T00:01:42.014Z,100.00
2023-01-25T00:04:08.756Z,100.00
2023-01-25T00:06:35.380Z,100.00
2023-01-25T00:09:02.366Z,100.00
2023-01-25T00:11:28.872Z,100.00
2023-01-25T00:13:55.964Z,100.00
2023-01-25T00:16:23.600Z,100.00
2023-01-25T00:18:50.479Z,100.00
2023-01-25T00:21:22.964Z,100.00
2023-01-25T00:23:50.347Z,100.00
2023-01-25T00:26:17.127Z,100.00
2023-01-25T00:28:43.803Z,100.00
2023-01-25T00:31:17.372Z,100.00
2023-01-25T00:33:51.149Z,100.00
2023-01-25T00:36:33.716Z,100.00
2023-01-25T00:39:00.355Z,100.00
2023-01-25T00:41:26.921Z,100.00
2023-01-25T00:43:53.557Z,100.00
2023-01-25T00:46:20.142Z,100.00
2023-01-25T00:48:46.665Z,100.00
2023-01-25T00:51:13.657Z,100.00
2023-01-25T00:53:40.142Z,100.00
2023-01-25T00:56:06.898Z,100.00
2023-01-25T00:58:33.535Z,100.00
2023-01-25T01:01:00.480Z,100.00
2023-01-25T01:03:27.000Z,100.00
2023-01-25T01:06:11.701Z,100.00
2023-01-25T01:08:42.278Z,100.00
2023-01-25T01:11:10.941Z,99.96
2023-01-25T01:13:38.344Z,100.00
2023-01-25T01:16:08.496Z,100.00
2023-01-25T01:18:36.299Z,100.00
2023-01-25T01:21:03.625Z,99.15
2023-01-25T01:23:30.524Z,99.14
2023-01-25T01:26:00.387Z,98.98
2023-01-25T01:28:29.815Z,99.84
2023-01-25T01:31:03.550Z,100.00
2023-01-25T01:33:30.076Z,99.57
2023-01-25T01:35:57.180Z,98.95
2023-01-25T01:38:24.131Z,97.83
2023-01-25T01:40:50.915Z,96.96
2023-01-25T01:43:19.997Z,97.56
2023-01-25T01:45:49.571Z,97.79
2023-01-25T01:48:31.091Z,98.76
2023-01-25T01:51:00.766Z,98.13
2023-01-25T01:53:27.982Z,97.81
2023-01-25T01:55:57.527Z,98.21
2023-01-25T01:58:24.303Z,98.33
2023-01-25T02:00:50.959Z,98.76
2023-01-25T02:03:17.976Z,99.51
2023-01-25T02:05:44.405Z,99.67
2023-01-25T02:08:14.951Z,99.44
2023-01-25T02:10:42.739Z,98.50
2023-01-25T02:13:09.254Z,98.41
2023-01-25T02:15:42.283Z,99.05
2023-01-25T02:18:10.614Z,99.03
2023-01-25T02:20:41.327Z,98.17
2023-01-25T02:23:31.706Z,98.76
2023-01-25T02:26:00.913Z,98.69
2023-01-25T02:28:38.134Z,98.66
2023-01-25T02:31:04.832Z,97.67
2023-01-25T02:33:31.416Z,98.05
2023-01-25T02:36:19.539Z,98.76
2023-01-25T02:38:51.245Z,98.15
2023-01-25T02:41:23.792Z,97.70
2023-01-25T02:43:50.315Z,97.50
2023-01-25T02:46:33.451Z,97.37
2023-01-25T02:49:01.120Z,97.11
2023-01-25T02:51:30.237Z,97.82
2023-01-25T02:53:57.275Z,98.52
2023-01-25T02:56:24.490Z,98.35
2023-01-25T02:58:51.455Z,97.21
2023-01-25T03:01:18.347Z,95.79
2023-01-25T03:03:44.891Z,95.98
2023-01-25T03:06:11.693Z,95.35
2023-01-25T03:08:38.278Z,94.90
2023-01-25T03:11:05.862Z,93.94
2023-01-25T03:13:33.023Z,93.48
2023-01-25T03:16:05.179Z,95.72
2023-01-25T03:18:31.980Z,96.53
2023-01-25T03:21:05.367Z,96.82
2023-01-25T03:23:31.933Z,96.50
2023-01-25T03:26:19.283Z,96.87
2023-01-25T03:28:46.972Z,97.58
2023-01-25T03:31:15.155Z,97.35
2023-01-25T03:33:42.839Z,96.23
2023-01-25T03:36:10.389Z,96.18
2023-01-25T03:38:37.096Z,96.11
2023-01-25T03:41:04.137Z,95.37
2023-01-25T03:43:30.865Z,95.91
2023-01-25T03:45:59.793Z,97.22
2023-01-25T03:48:27.336Z,97.56
2023-01-25T03:50:56.108Z,97.56
2023-01-25T03:53:30.040Z,97.74
2023-01-25T03:56:11.735Z,97.67
2023-01-25T03:58:39.574Z,96.69
2023-01-25T04:01:07.581Z,97.19
2023-01-25T04:03:34.457Z,96.71
2023-01-25T04:06:01.521Z,96.35
2023-01-25T04:08:28.499Z,96.71
2023-01-25T04:11:16.258Z,97.30
2023-01-25T04:13:42.795Z,97.39
2023-01-25T04:16:12.584Z,97.15
2023-01-25T04:18:40.121Z,97.04
2023-01-25T04:21:06.791Z,97.72
2023-01-25T04:23:33.341Z,98.67
2023-01-25T04:26:02.421Z,99.49
2023-01-25T04:28:29.107Z,100.00
2023-01-25T04:30:56.455Z,100.00
2023-01-25T04:33:23.541Z,99.41
2023-01-25T04:35:50.111Z,99.62
2023-01-25T04:38:16.714Z,99.80
2023-01-25T04:40:43.962Z,100.00
2023-01-25T04:43:12.607Z,100.00
2023-01-25T04:45:39.250Z,100.00
2023-01-25T04:48:10.064Z,100.00
2023-01-25T04:50:37.995Z,100.00
2023-01-25T04:53:06.310Z,100.00
2023-01-25T04:55:34.273Z,100.00
2023-01-25T04:58:01.403Z,100.00
2023-01-25T05:00:29.041Z,100.00
2023-01-25T05:02:55.714Z,100.00
2023-01-25T05:05:22.237Z,100.00
2023-01-25T05:07:48.848Z,100.00
2023-01-25T05:10:15.371Z,100.00
2023-01-25T05:12:41.989Z,100.00
2023-01-25T05:15:09.072Z,100.00
2023-01-25T05:17:35.955Z,100.00
2023-01-25T05:20:03.045Z,100.00
2023-01-25T05:22:29.538Z,100.00
2023-01-25T05:24:56.139Z,100.00
2023-01-25T05:27:22.792Z,100.00
2023-01-25T05:29:49.238Z,100.00
2023-01-25T05:32:21.176Z,100.00
2023-01-25T05:34:48.462Z,100.00
2023-01-25T05:37:17.719Z,100.00
2023-01-25T05:39:44.718Z,100.00
2023-01-25T05:42:13.649Z,100.00
2023-01-25T05:44:40.253Z,100.00
2023-01-25T05:47:07.725Z,100.00
2023-01-25T05:49:34.219Z,100.00
2023-01-25T05:52:00.720Z,100.00
2023-01-25T05:54:27.337Z,100.00
2023-01-25T05:56:53.767Z,100.00
2023-01-25T05:59:20.236Z,100.00
2023-01-25T06:01:47.135Z,100.00
2023-01-25T06:04:18.331Z,100.00
2023-01-25T06:06:44.908Z,100.00
2023-01-25T06:09:14.775Z,100.00
2023-01-25T06:11:44.449Z,100.00
2023-01-25T06:14:10.928Z,100.00
2023-01-25T06:16:37.635Z,100.00
2023-01-25T06:19:08.245Z,100.00
2023-01-25T06:21:37.137Z,100.00
2023-01-25T06:24:05.026Z,100.00
2023-01-25T06:26:31.618Z,100.00
2023-01-25T06:28:58.145Z,100.00
2023-01-25T06:31:25.073Z,100.00
2023-01-25T06:33:52.199Z,100.00
2023-01-25T06:36:20.389Z,100.00
2023-01-25T06:38:51.262Z,100.00
2023-01-25T06:41:18.362Z,100.00
2023-01-25T06:43:45.302Z,100.00
2023-01-25T06:46:12.833Z,100.00
2023-01-25T06:48:39.690Z,100.00
2023-01-25T06:51:08.257Z,100.00
2023-01-25T06:53:37.393Z,100.00
2023-01-25T06:56:12.022Z,100.00
2023-01-25T06:58:39.223Z,100.00
2023-01-25T07:01:16.899Z,100.00
2023-01-25T07:03:43.686Z,100.00
2023-01-25T07:06:11.381Z,100.00
2023-01-25T07:08:38.195Z,100.00
2023-01-25T07:11:09.581Z,100.00
2023-01-25T07:13:36.107Z,100.00
2023-01-25T07:16:05.181Z,100.00
2023-01-25T07:18:32.681Z,100.00
2023-01-25T07:21:07.012Z,100.00
2023-01-25T07:23:34.730Z,100.00
2023-01-25T07:26:01.702Z,100.00
2023-01-25T07:28:28.709Z,100.00
2023-01-25T07:30:55.880Z,100.00
2023-01-25T07:33:22.478Z,100.00
2023-01-25T07:35:50.982Z,100.00
2023-01-25T07:38:18.052Z,100.00
2023-01-25T07:40:46.349Z,100.00
2023-01-25T07:43:13.345Z,100.00
2023-01-25T07:45:40.106Z,100.00
2023-01-25T07:48:10.128Z,100.00
2023-01-25T07:50:36.741Z,100.00
2023-01-25T07:53:03.435Z,100.00
2023-01-25T07:55:31.192Z,100.00
2023-01-25T07:57:57.708Z,100.00
2023-01-25T08:00:25.137Z,100.00
2023-01-25T08:02:52.286Z,100.00
2023-01-25T08:05:19.475Z,100.00
2023-01-25T08:07:47.041Z,100.00
2023-01-25T08:10:14.253Z,100.00
2023-01-25T08:12:45.664Z,100.00
2023-01-25T08:15:13.903Z,100.00
2023-01-25T08:17:40.664Z,99.84
2023-01-25T08:20:08.041Z,99.63
2023-01-25T08:22:34.806Z,99.87
2023-01-25T08:25:01.673Z,100.00
2023-01-25T08:27:28.929Z,100.00
2023-01-25T08:29:55.694Z,99.43
2023-01-25T08:32:22.333Z,99.24
2023-01-25T08:34:48.825Z,98.17
2023-01-25T08:37:15.450Z,97.70
2023-01-25T08:39:42.621Z,97.57
2023-01-25T08:42:09.143Z,97.39
2023-01-25T08:44:35.958Z,98.11
2023-01-25T08:47:02.486Z,98.50
2023-01-25T08:49:31.063Z,98.20
2023-01-25T08:51:58.494Z,97.99
2023-01-25T08:54:25.220Z,97.15
2023-01-25T08:56:52.035Z,97.89
2023-01-25T08:59:18.612Z,99.13
2023-01-25T09:01:45.302Z,98.68
2023-01-25T09:04:11.851Z,98.25
2023-01-25T09:06:38.424Z,97.33
2023-01-25T09:09:05.196Z,98.09
2023-01-25T09:11:33.743Z,98.20
2023-01-25T09:14:00.219Z,97.19
2023-01-25T09:16:30.726Z,97.17
2023-01-25T09:18:59.335Z,97.45
2023-01-25T09:21:26.142Z,97.91
2023-01-25T09:24:08.914Z,97.62
2023-01-25T09:26:39.240Z,97.68
2023-01-25T09:29:08.030Z,97.38
2023-01-25T09:31:35.454Z,97.64
2023-01-25T09:34:02.620Z,98.06
2023-01-25T09:36:29.814Z,96.53
2023-01-25T09:38:57.115Z,96.67
2023-01-25T09:41:51.888Z,97.66
2023-01-25T09:44:44.858Z,96.96
2023-01-25T09:47:25.791Z,96.86
2023-01-25T09:50:11.229Z,97.01
2023-01-25T09:52:57.377Z,96.51
2023-01-25T09:55:26.185Z,96.57
2023-01-25T09:57:53.999Z,96.55
2023-01-25T10:00:55.097Z,96.32
2023-01-25T10:03:24.950Z,96.96
2023-01-25T10:05:54.186Z,97.53
2023-01-25T10:08:49.814Z,96.93
2023-01-25T10:11:28.536Z,96.55
2023-01-25T10:13:56.487Z,96.37
2023-01-25T10:16:50.173Z,96.56
2023-01-25T10:19:35.605Z,96.18
2023-01-25T10:22:11.940Z,96.00
2023-01-25T10:24:50.958Z,96.63
2023-01-25T10:27:53.306Z,95.82
2023-01-25T10:30:31.891Z,95.51
2023-01-25T10:33:01.375Z,95.60
2023-01-25T10:35:38.514Z,95.54
2023-01-25T10:38:38.014Z,96.24
2023-01-25T10:41:10.555Z,96.84
2023-01-25T10:43:37.078Z,96.91
2023-01-25T10:46:03.710Z,96.74
2023-01-25T10:48:34.606Z,96.88
2023-01-25T10:51:01.312Z,96.60
2023-01-25T10:53:31.838Z,97.22
2023-01-25T10:56:00.451Z,96.31
2023-01-25T10:58:32.564Z,96.17
2023-01-25T11:00:59.861Z,96.79
2023-01-25T11:03:34.775Z,97.56
2023-01-25T11:06:02.224Z,96.70
2023-01-25T11:08:31.338Z,97.08
2023-01-25T11:10:59.030Z,97.56
2023-01-25T11:13:34.677Z,97.75
2023-01-25T11:16:05.020Z,97.87
2023-01-25T11:18:34.896Z,97.96
2023-01-25T11:21:19.428Z,97.47
2023-01-25T11:24:03.586Z,97.70
2023-01-25T11:26:31.297Z,97.84
2023-01-25T11:29:08.551Z,98.31
2023-01-25T11:31:35.315Z,98.65
2023-01-25T11:34:01.987Z,97.63
2023-01-25T11:36:33.775Z,98.27
2023-01-25T11:39:05.473Z,98.00
2023-01-25T11:41:43.285Z,97.05
2023-01-25T11:44:32.538Z,97.39
2023-01-25T11:47:11.206Z,98.05
2023-01-25T11:49:49.867Z,97.81
2023-01-25T11:52:48.562Z,97.54
2023-01-25T11:55:40.041Z,98.36
2023-01-25T11:58:55.002Z,98.47
2023-01-25T12:01:28.166Z,98.51
2023-01-25T12:04:08.005Z,98.21
2023-01-25T12:06:40.042Z,98.66
2023-01-25T12:09:24.364Z,98.16
2023-01-25T12:12:24.982Z,98.00
2023-01-25T12:15:07.617Z,97.65
2023-01-25T12:17:47.864Z,97.96
2023-01-25T12:20:27.122Z,97.90
2023-01-25T12:23:18.477Z,98.59
2023-01-25T12:26:24.721Z,98.57
2023-01-25T12:29:00.236Z,98.43
2023-01-25T12:32:11.651Z,98.99
2023-01-25T12:34:40.620Z,99.13
2023-01-25T12:37:20.422Z,98.92
2023-01-25T12:40:11.377Z,98.64
2023-01-25T12:42:43.613Z,99.03
2023-01-25T12:45:22.903Z,99.32
2023-01-25T12:47:52.007Z,99.00
2023-01-25T12:50:31.447Z,98.12
2023-01-25T12:53:03.077Z,98.13
2023-01-25T12:55:29.704Z,98.39
2023-01-25T12:58:37.380Z,98.30
2023-01-25T13:01:29.436Z,98.60
2023-01-25T13:04:26.287Z,98.83
2023-01-25T13:07:11.180Z,98.39
2023-01-25T13:09:56.324Z,98.75
2023-01-25T13:12:24.555Z,98.38
2023-01-25T13:14:50.990Z,98.70
2023-01-25T13:17:23.439Z,98.31
2023-01-25T13:19:51.218Z,98.29
2023-01-25T13:22:55.103Z,97.58
2023-01-25T13:25:23.629Z,97.71
2023-01-25T13:27:50.567Z,97.86
2023-01-25T13:30:32.431Z,98.07
2023-01-25T13:33:01.565Z,97.77
2023-01-25T13:35:29.093Z,97.65
2023-01-25T13:38:01.288Z,98.79
2023-01-25T13:40:31.738Z,99.91
2023-01-25T13:43:00.989Z,98.11
2023-01-25T13:45:28.605Z,98.29
2023-01-25T13:48:06.332Z,97.75
2023-01-25T13:50:36.415Z,98.29
2023-01-25T13:53:17.438Z,98.69
2023-01-25T13:55:50.468Z,98.82
2023-01-25T13:58:26.951Z,97.88
2023-01-25T14:00:58.710Z,98.06
2023-01-25T14:03:41.052Z,98.00
2023-01-25T14:06:15.921Z,97.80
2023-01-25T14:08:43.580Z,97.59
2023-01-25T14:11:10.093Z,98.16
2023-01-25T14:13:36.637Z,98.76
2023-01-25T14:16:06.773Z,98.75
2023-01-25T14:18:35.242Z,99.59
2023-01-25T14:21:19.118Z,99.50
2023-01-25T14:23:46.813Z,99.02
2023-01-25T14:26:20.991Z,98.62
2023-01-25T14:28:59.318Z,99.04
2023-01-25T14:31:33.187Z,99.73
2023-01-25T14:33:59.784Z,99.47
2023-01-25T14:36:31.366Z,99.03
2023-01-25T14:38:58.172Z,98.81
2023-01-25T14:41:40.195Z,99.04
2023-01-25T14:44:15.289Z,99.82
2023-01-25T14:46:42.029Z,100.00
2023-01-25T14:49:11.919Z,100.00
2023-01-25T14:51:48.468Z,99.58
2023-01-25T14:54:35.816Z,99.03
2023-01-25T14:57:05.083Z,99.33
2023-01-25T14:59:34.314Z,98.64
2023-01-25T15:02:19.617Z,99.23
2023-01-25T15:05:10.778Z,99.92
2023-01-25T15:07:48.084Z,100.00
2023-01-25T15:10:23.174Z,100.00
2023-01-25T15:13:18.119Z,100.00
2023-01-25T15:15:52.526Z,100.00
2023-01-25T15:18:44.252Z,100.00
2023-01-25T15:21:12.948Z,100.00
2023-01-25T15:23:42.224Z,100.00
2023-01-25T15:26:19.606Z,100.00
2023-01-25T15:28:46.724Z,100.00
2023-01-25T15:31:21.618Z,100.00
2023-01-25T15:33:48.277Z,100.00
2023-01-25T15:36:16.090Z,99.94
2023-01-25T15:38:42.776Z,100.00
2023-01-25T15:41:10.351Z,100.00
2023-01-25T15:43:37.145Z,99.84
2023-01-25T15:46:04.816Z,99.78
2023-01-25T15:48:36.605Z,99.81
2023-01-25T15:51:03.550Z,99.31
2023-01-25T15:53:30.495Z,99.30
2023-01-25T15:56:05.795Z,99.38
2023-01-25T15:58:44.995Z,100.00
2023-01-25T16:01:11.809Z,99.81
2023-01-25T16:03:41.624Z,99.83
2023-01-25T16:06:41.842Z,99.74
2023-01-25T16:09:29.871Z,100.00
2023-01-25T16:11:58.624Z,100.00
2023-01-25T16:14:29.993Z,100.00
2023-01-25T16:16:58.612Z,100.00
2023-01-25T16:19:25.206Z,100.00
2023-01-25T16:21:51.804Z,100.00
2023-01-25T16:24:18.817Z,100.00
2023-01-25T16:26:49.297Z,100.00
2023-01-25T16:29:15.852Z,100.00
2023-01-25T16:31:44.816Z,100.00
2023-01-25T16:34:11.895Z,100.00
2023-01-25T16:36:39.661Z,100.00
2023-01-25T16:39:10.096Z,100.00
2023-01-25T16:41:37.085Z,100.00
2023-01-25T16:44:03.635Z,100.00
2023-01-25T16:46:30.367Z,100.00
2023-01-25T16:48:57.459Z,100.00
2023-01-25T16:51:26.588Z,100.00
2023-01-25T16:53:55.587Z,100.00
2023-01-25T16:56:30.339Z,100.00
2023-01-25T16:59:00.152Z,100.00
2023-01-25T17:01:27.590Z,100.00
2023-01-25T17:03:54.909Z,100.00
2023-01-25T17:06:25.131Z,100.00
2023-01-25T17:08:52.745Z,100.00
2023-01-25T17:11:19.355Z,100.00
2023-01-25T17:13:50.247Z,100.00
2023-01-25T17:16:20.840Z,100.00
2023-01-25T17:18:47.998Z,100.00
2023-01-25T17:21:15.129Z,100.00
2023-01-25T17:23:42.064Z,100.00
2023-01-25T17:26:12.775Z,100.00
2023-01-25T17:28:39.769Z,100.00
2023-01-25T17:31:16.900Z,100.00
2023-01-25T17:33:44.022Z,100.00
2023-01-25T17:36:10.742Z,100.00
2023-01-25T17:38:37.213Z,100.00
2023-01-25T17:41:08.994Z,100.00
2023-01-25T17:43:36.128Z,100.00
2023-01-25T17:46:13.829Z,100.00
2023-01-25T17:48:40.696Z,100.00
2023-01-25T17:51:07.303Z,100.00
2023-01-25T17:53:34.056Z,100.00
2023-01-25T17:56:04.572Z,100.00
2023-01-25T17:58:32.024Z,100.00
2023-01-25T18:01:12.569Z,100.00
2023-01-25T18:03:40.019Z,100.00
2023-01-25T18:06:09.205Z,100.00
2023-01-25T18:08:40.589Z,100.00
2023-01-25T18:11:12.015Z,100.00
2023-01-25T18:13:53.591Z,100.00
2023-01-25T18:16:24.113Z,100.00
2023-01-25T18:18:52.263Z,100.00
2023-01-25T18:21:27.051Z,100.00
2023-01-25T18:24:01.865Z,100.00
2023-01-25T18:26:30.782Z,100.00
2023-01-25T18:29:40.587Z,100.00
2023-01-25T18:32:07.441Z,100.00
2023-01-25T18:34:34.081Z,100.00
2023-01-25T18:37:00.647Z,100.00
2023-01-25T18:39:28.167Z,100.00
2023-01-25T18:41:54.921Z,100.00
2023-01-25T18:44:21.427Z,100.00
2023-01-25T18:46:48.048Z,100.00
2023-01-25T18:49:14.633Z,100.00
2023-01-25T18:52:01.889Z,100.00
2023-01-25T18:54:27.890Z,100.00
2023-01-25T18:56:55.123Z,100.00
2023-01-25T18:59:21.655Z,100.00
2023-01-25T19:01:48.249Z,100.00
2023-01-25T19:04:14.896Z,100.00
2023-01-25T19:06:41.426Z,100.00
2023-01-25T19:09:08.023Z,100.00
2023-01-25T19:11:34.497Z,100.00
2023-01-25T19:14:01.701Z,100.00
2023-01-25T19:16:28.269Z,100.00
2023-01-25T19:18:55.285Z,100.00
2023-01-25T19:21:26.476Z,100.00
2023-01-25T19:23:53.898Z,100.00
2023-01-25T19:26:22.408Z,100.00
2023-01-25T19:28:49.085Z,100.00
2023-01-25T19:31:23.775Z,100.00
2023-01-25T19:33:58.020Z,100.00
2023-01-25T19:36:24.838Z,100.00
2023-01-25T19:38:51.518Z,100.00
2023-01-25T19:41:22.588Z,100.00
2023-01-25T19:43:56.485Z,100.00
2023-01-25T19:46:25.488Z,100.00
2023-01-25T19:48:52.946Z,100.00
2023-01-25T19:51:30.447Z,100.00
2023-01-25T19:54:03.245Z,100.00
2023-01-25T19:56:34.648Z,100.00
2023-01-25T19:59:02.854Z,100.00
2023-01-25T20:01:29.723Z,100.00
2023-01-25T20:04:02.211Z,100.00
2023-01-25T20:06:29.271Z,100.00
2023-01-25T20:08:56.293Z,100.00
2023-01-25T20:11:30.869Z,100.00
2023-01-25T20:13:59.751Z,100.00
2023-01-25T20:16:28.049Z,100.00
2023-01-25T20:18:56.191Z,100.00
2023-01-25T20:21:24.051Z,100.00
2023-01-25T20:23:57.085Z,100.00
2023-01-25T20:26:32.622Z,100.00
2023-01-25T20:28:59.963Z,100.00
2023-01-25T20:31:34.843Z,100.00
2023-01-25T20:34:07.118Z,100.00
2023-01-25T20:36:35.020Z,100.00
2023-01-25T20:39:01.699Z,100.00
2023-01-25T20:41:28.298Z,100.00
2023-01-25T20:44:04.534Z,100.00
2023-01-25T20:46:33.941Z,100.00
2023-01-25T20:49:01.796Z,100.00
2023-01-25T20:51:28.750Z,100.00
2023-01-25T20:53:55.906Z,100.00
2023-01-25T20:56:22.831Z,100.00
2023-01-25T20:58:52.968Z,100.00
2023-01-25T21:01:20.325Z,100.00
2023-01-25T21:03:47.925Z,100.00
2023-01-25T21:06:15.035Z,100.00
2023-01-25T21:08:41.917Z,100.00
2023-01-25T21:11:09.186Z,100.00
2023-01-25T21:13:36.023Z,100.00
2023-01-25T21:16:07.106Z,100.00
2023-01-25T21:18:38.920Z,100.00
2023-01-25T21:21:14.462Z,100.00
2023-01-25T21:23:44.797Z,100.00
2023-01-25T21:26:25.847Z,100.00
2023-01-25T21:28:54.641Z,100.00
2023-01-25T21:31:23.069Z,100.00
2023-01-25T21:33:49.679Z,100.00
2023-01-25T21:36:17.213Z,100.00
2023-01-25T21:38:46.037Z,100.00
2023-01-25T21:41:21.700Z,100.00
2023-01-25T21:44:07.569Z,100.00
2023-01-25T21:46:34.697Z,100.00
2023-01-25T21:49:22.124Z,100.00
2023-01-25T21:51:51.024Z,100.00
2023-01-25T21:54:25.335Z,100.00
2023-01-25T21:56:53.981Z,100.00
2023-01-25T21:59:20.914Z,100.00
2023-01-25T22:01:48.334Z,100.00
2023-01-25T22:04:16.749Z,100.00
2023-01-25T22:06:43.624Z,100.00
2023-01-25T22:09:12.790Z,100.00
2023-01-25T22:11:39.417Z,100.00
2023-01-25T22:14:06.291Z,100.00
2023-01-25T22:16:32.768Z,100.00
2023-01-25T22:19:00.176Z,100.00
2023-01-25T22:21:30.691Z,100.00
2023-01-25T22:23:59.351Z,100.00
2023-01-25T22:26:27.063Z,100.00
2023-01-25T22:28:58.423Z,100.00
2023-01-25T22:31:27.514Z,100.00
2023-01-25T22:33:55.263Z,100.00
2023-01-25T22:36:23.377Z,100.00
2023-01-25T22:38:50.169Z,100.00
2023-01-25T22:41:21.629Z,100.00
2023-01-25T22:43:48.297Z,100.00
2023-01-25T22:46:20.584Z,100.00
2023-01-25T22:48:47.901Z,100.00
2023-01-25T22:51:15.295Z,100.00
2023-01-25T22:53:41.862Z,100.00
2023-01-25T22:56:11.981Z,100.00
2023-01-25T22:58:39.805Z,100.00
2023-01-25T23:01:11.553Z,100.00
2023-01-25T23:03:39.413Z,100.00
2023-01-25T23:06:12.950Z,100.00
2023-01-25T23:08:40.100Z,100.00
2023-01-25T23:11:10.472Z,100.00
2023-01-25T23:13:37.195Z,100.00
2023-01-25T23:16:04.903Z,100.00
2023-01-25T23:18:50.292Z,100.00
2023-01-25T23:21:18.906Z,100.00
2023-01-25T23:23:45.827Z,100.00
2023-01-25T23:26:12.961Z,100.00
2023-01-25T23:28:39.577Z,100.00
2023-01-25T23:31:24.439Z,100.00
2023-01-25T23:33:52.205Z,100.00
2023-01-25T23:36:26.959Z,100.00
2023-01-25T23:38:53.851Z,100.00
2023-01-25T23:41:21.830Z,100.00
2023-01-25T23:43:48.973Z,100.00
2023-01-25T23:46:16.858Z,100.00
2023-01-25T23:48:43.989Z,100.00
2023-01-25T23:51:12.550Z,100.00
2023-01-25T23:53:39.673Z,100.00
2023-01-25T23:56:14.057Z,100.00
2023-01-25T23:58:40.726Z,100.00
